SKCC/CUC METAR and TAF weather

Enter ICAO airport designator
Station Type Date Time Source
SKCC METAR 2020/07/14 23:00 UTC NOAA

SKCC 142300Z 02010KT 9999 SCT020 SCT200 31/20 A2990


Station Type Date Time Source
SKCC Decoded METAR 2020/07/14 23:00 UTC NOAA

Cucuta / Camilo Daza, Colombia (SKCC) 07-56N 072-31W 317M
Jul 14, 2020 - 07:00 PM EDT / 2020.07.14 2300 UTC
Wind: from the NNE (020 degrees) at 12 MPH (10 KT):0
Visibility: greater than 7 mile(s):0
Sky conditions: partly cloudy
Temperature: 87 F (31 C)
Dew Point: 68 F (20 C)
Relative Humidity: 52%
Pressure (altimeter): 29.9 in. Hg (1012 hPa)
ob: SKCC 142300Z 02010KT 9999 SCT020 SCT200 31/20 A2990
cycle: 23

Station Type Date Time Source
SKCC TAF 2020/07/15 06:39 UTC NOAA

TAF TAF SKCC 150430Z 1506/1606 VRB03KT 9999 SCT020 BKN090
BECMG 1514/1515 16020KT PROB40
TEMPO 1523/1601 DZRA SCT018CB
BECMG 1602/1603 18006KT TX35/1518Z TN23/1511Z

Example: see airport list